createdAt,value
2019-04-03T00:00:13.099Z,14.30
2019-04-03T00:02:42.950Z,14.20
2019-04-03T00:05:12.659Z,14.10
2019-04-03T00:07:41.224Z,14.00
2019-04-03T00:10:10.507Z,14.10
2019-04-03T00:12:41.008Z,14.00
2019-04-03T00:15:09.561Z,14.00
2019-04-03T00:17:37.836Z,14.10
2019-04-03T00:20:06.746Z,14.10
2019-04-03T00:22:35.450Z,14.00
2019-04-03T00:25:04.511Z,13.90
2019-04-03T00:27:32.682Z,13.90
2019-04-03T00:30:01.487Z,14.00
2019-04-03T00:32:30.398Z,13.90
2019-04-03T00:34:58.904Z,13.80
2019-04-03T00:37:28.712Z,13.70
2019-04-03T00:39:57.015Z,13.80
2019-04-03T00:42:25.893Z,13.80
2019-04-03T00:44:54.972Z,13.70
2019-04-03T00:47:25.458Z,13.80
2019-04-03T00:49:56.109Z,13.90
2019-04-03T00:52:25.944Z,13.90
2019-04-03T00:54:56.366Z,13.90
2019-04-03T00:57:26.412Z,13.80
2019-04-03T00:59:56.507Z,13.80
2019-04-03T01:02:27.831Z,13.70
2019-04-03T01:04:58.014Z,13.70
2019-04-03T01:07:27.534Z,13.90
2019-04-03T01:09:59.071Z,13.80
2019-04-03T01:12:30.369Z,13.70
2019-04-03T01:15:01.530Z,13.70
2019-04-03T01:17:34.154Z,13.80
2019-04-03T01:20:07.986Z,13.70
2019-04-03T01:22:38.943Z,13.80
2019-04-03T01:25:09.512Z,13.70
2019-04-03T01:27:41.759Z,13.70
2019-04-03T01:30:14.333Z,13.70
2019-04-03T01:32:46.283Z,13.70
2019-04-03T01:35:17.416Z,13.80
2019-04-03T01:37:50.036Z,13.80
2019-04-03T01:40:21.974Z,13.70
2019-04-03T01:42:53.569Z,13.70
2019-04-03T01:45:25.818Z,13.60
2019-04-03T01:47:57.609Z,13.70
2019-04-03T01:50:26.947Z,13.70
2019-04-03T01:52:57.442Z,13.70
2019-04-03T01:55:27.709Z,13.70
2019-04-03T01:57:57.112Z,13.60
2019-04-03T02:00:27.907Z,13.80
2019-04-03T02:02:57.461Z,13.70
2019-04-03T02:05:26.900Z,13.80
2019-04-03T02:07:57.353Z,13.80
2019-04-03T02:10:27.576Z,14.00
2019-04-03T02:12:59.106Z,14.10
2019-04-03T02:15:27.546Z,14.10
2019-04-03T02:17:59.396Z,13.90
2019-04-03T02:20:31.150Z,13.80
2019-04-03T02:23:04.377Z,13.70
2019-04-03T02:25:34.772Z,13.60
2019-04-03T02:28:06.289Z,13.60
2019-04-03T02:30:36.299Z,13.50
2019-04-03T02:33:06.443Z,13.50
2019-04-03T02:35:38.905Z,13.50
2019-04-03T02:38:07.852Z,13.50
2019-04-03T02:40:38.254Z,13.50
2019-04-03T02:43:07.892Z,13.50
2019-04-03T02:45:38.477Z,13.50
2019-04-03T02:48:08.381Z,13.40
2019-04-03T02:50:39.366Z,13.40
2019-04-03T02:53:10.484Z,13.30
2019-04-03T02:55:44.005Z,13.30
2019-04-03T02:58:14.135Z,13.40
2019-04-03T03:00:44.558Z,13.20
2019-04-03T03:03:16.518Z,13.20
2019-04-03T03:05:46.901Z,13.30
2019-04-03T03:08:23.059Z,13.30
2019-04-03T03:10:53.535Z,13.30
2019-04-03T03:13:24.156Z,13.20
2019-04-03T03:15:56.420Z,13.20
2019-04-03T03:18:27.218Z,13.20
2019-04-03T03:20:59.098Z,13.30
2019-04-03T03:23:31.987Z,13.30
2019-04-03T03:26:06.707Z,13.30
2019-04-03T03:28:36.519Z,13.20
2019-04-03T03:31:07.734Z,13.20
2019-04-03T03:33:41.189Z,13.30
2019-04-03T03:36:19.513Z,13.20
2019-04-03T03:38:44.316Z,13.20
2019-04-03T03:41:15.626Z,13.20
2019-04-03T03:43:45.482Z,13.20
2019-04-03T03:46:15.470Z,13.20
2019-04-03T03:48:45.803Z,13.10
2019-04-03T03:51:15.821Z,13.00
2019-04-03T03:53:47.529Z,13.00
2019-04-03T03:56:21.134Z,12.90
2019-04-03T03:58:51.965Z,12.90
2019-04-03T04:01:22.687Z,13.00
2019-04-03T04:03:52.341Z,12.90
2019-04-03T04:06:21.928Z,12.80
2019-04-03T04:08:52.436Z,12.70
2019-04-03T04:11:22.464Z,12.80
2019-04-03T04:13:52.238Z,12.80
2019-04-03T04:16:24.658Z,12.80
2019-04-03T04:18:57.308Z,12.80
2019-04-03T04:21:26.965Z,13.00
2019-04-03T04:24:01.987Z,13.00
2019-04-03T04:26:32.872Z,12.90
2019-04-03T04:29:10.315Z,12.80
2019-04-03T04:31:43.351Z,12.70
2019-04-03T04:34:18.324Z,12.70
2019-04-03T04:36:49.988Z,12.70
2019-04-03T04:39:21.586Z,12.60
2019-04-03T04:41:55.582Z,12.50
2019-04-03T04:44:29.156Z,12.40
2019-04-03T04:47:02.635Z,12.30
2019-04-03T04:49:37.839Z,12.30
2019-04-03T04:52:14.707Z,12.30
2019-04-03T04:54:45.042Z,12.30
2019-04-03T04:57:16.274Z,12.30
2019-04-03T04:59:45.737Z,12.30
2019-04-03T05:02:19.368Z,12.40
2019-04-03T05:04:52.300Z,12.40
2019-04-03T05:07:22.594Z,12.40
2019-04-03T05:09:55.876Z,12.40
2019-04-03T05:12:25.680Z,12.50
2019-04-03T05:14:59.787Z,12.70
2019-04-03T05:17:31.155Z,12.90
2019-04-03T05:20:08.133Z,12.90
2019-04-03T05:22:42.752Z,12.90
2019-04-03T05:25:13.816Z,12.80
2019-04-03T05:27:48.800Z,12.80
2019-04-03T05:30:39.781Z,12.70
2019-04-03T05:33:13.042Z,12.70
2019-04-03T05:35:46.300Z,12.70
2019-04-03T05:38:18.186Z,12.70
2019-04-03T05:40:56.112Z,12.70
2019-04-03T05:43:31.531Z,12.70
2019-04-03T05:46:12.133Z,12.80
2019-04-03T05:48:49.287Z,12.90
2019-04-03T05:51:29.157Z,12.90
2019-04-03T05:54:01.541Z,12.90
2019-04-03T05:56:31.717Z,12.90
2019-04-03T05:59:03.049Z,12.90
2019-04-03T06:01:32.816Z,12.90
2019-04-03T06:04:20.760Z,12.90
2019-04-03T06:07:19.893Z,13.00
2019-04-03T06:10:06.238Z,13.10
2019-04-03T06:13:07.134Z,13.10
2019-04-03T06:15:45.314Z,13.20
2019-04-03T06:18:31.644Z,13.40
2019-04-03T06:21:20.289Z,13.30
2019-04-03T06:24:09.501Z,13.60
2019-04-03T06:26:51.666Z,13.80
2019-04-03T06:29:40.405Z,13.90
2019-04-03T06:32:18.769Z,14.10
2019-04-03T06:34:56.278Z,14.10
2019-04-03T06:37:35.382Z,14.10
2019-04-03T06:40:49.206Z,13.90
2019-04-03T06:44:01.976Z,14.00
2019-04-03T06:46:56.485Z,14.10
2019-04-03T06:49:35.254Z,14.10
2019-04-03T06:52:13.808Z,14.00
2019-04-03T06:55:18.203Z,13.80
2019-04-03T06:57:50.393Z,13.70
2019-04-03T07:00:42.506Z,13.70
2019-04-03T07:03:27.173Z,13.80
2019-04-03T07:06:01.886Z,13.80
2019-04-03T07:08:35.362Z,13.90
2019-04-03T07:11:03.681Z,13.80
2019-04-03T07:13:33.060Z,13.90
2019-04-03T07:16:04.431Z,13.70
2019-04-03T07:18:34.706Z,13.50
2019-04-03T07:21:05.304Z,13.50
2019-04-03T07:23:34.999Z,13.60
2019-04-03T07:26:05.166Z,13.70
2019-04-03T07:28:40.423Z,13.80
2019-04-03T07:31:10.334Z,13.80
2019-04-03T07:33:40.112Z,14.10
2019-04-03T07:36:11.316Z,14.70
2019-04-03T07:38:41.197Z,15.20
2019-04-03T07:41:13.337Z,16.00
2019-04-03T07:43:59.556Z,16.50
2019-04-03T07:46:32.874Z,16.60
2019-04-03T07:49:01.465Z,17.00
2019-04-03T07:51:30.933Z,17.10
2019-04-03T07:54:04.929Z,17.30
2019-04-03T07:56:34.086Z,17.80
2019-04-03T07:59:03.256Z,18.20
2019-04-03T08:01:37.055Z,18.80
2019-04-03T08:04:15.325Z,18.70
2019-04-03T08:06:42.582Z,18.90
2019-04-03T08:09:11.174Z,19.20
2019-04-03T08:11:47.279Z,19.50
2019-04-03T08:14:19.787Z,20.00
2019-04-03T08:16:48.851Z,20.30
2019-04-03T08:19:17.913Z,20.60
2019-04-03T08:21:46.934Z,21.60
2019-04-03T08:24:17.044Z,21.00
2019-04-03T08:26:45.230Z,21.00
2019-04-03T08:29:15.648Z,22.20
2019-04-03T08:31:48.234Z,22.30
2019-04-03T08:34:18.073Z,21.90
2019-04-03T08:36:45.126Z,21.70
2019-04-03T08:39:15.784Z,21.30
2019-04-03T08:41:43.691Z,21.50
2019-04-03T08:44:14.064Z,21.90
2019-04-03T08:46:43.914Z,22.50
2019-04-03T08:49:12.915Z,23.40
2019-04-03T08:51:41.077Z,24.60
2019-04-03T08:54:10.618Z,23.80
2019-04-03T08:56:40.307Z,24.90
2019-04-03T08:59:12.717Z,25.40
2019-04-03T09:01:41.478Z,25.90
2019-04-03T09:04:10.113Z,24.90
2019-04-03T09:06:41.755Z,24.70
2019-04-03T09:09:10.609Z,24.50
2019-04-03T09:11:39.060Z,23.40
2019-04-03T09:14:08.728Z,23.40
2019-04-03T09:16:37.101Z,23.40
2019-04-03T09:19:06.237Z,23.40
2019-04-03T09:21:34.711Z,23.90
2019-04-03T09:24:03.047Z,24.20
2019-04-03T09:26:37.174Z,24.30
2019-04-03T09:29:03.301Z,23.90
2019-04-03T09:31:32.024Z,24.90
2019-04-03T09:34:01.091Z,26.20
2019-04-03T09:36:29.395Z,25.50
2019-04-03T09:38:59.262Z,25.10
2019-04-03T09:41:27.523Z,25.50
2019-04-03T09:43:56.166Z,26.70
2019-04-03T09:46:24.771Z,26.50
2019-04-03T09:48:53.678Z,26.30
2019-04-03T09:51:22.874Z,26.30
2019-04-03T09:53:52.483Z,26.70
2019-04-03T09:56:21.061Z,27.00
2019-04-03T09:58:49.610Z,27.30
2019-04-03T10:01:20.082Z,26.30
2019-04-03T10:03:48.259Z,27.60
2019-04-03T10:06:16.919Z,27.80
2019-04-03T10:08:45.862Z,27.50
2019-04-03T10:11:15.519Z,27.00
2019-04-03T10:13:43.953Z,27.40
2019-04-03T10:16:15.499Z,27.80
2019-04-03T10:18:43.085Z,28.50
2019-04-03T10:21:11.591Z,28.60
2019-04-03T10:23:42.695Z,29.10
2019-04-03T10:26:11.042Z,28.40
2019-04-03T10:28:42.160Z,28.10
2019-04-03T10:31:09.419Z,27.70
2019-04-03T10:33:37.943Z,28.10
2019-04-03T10:36:10.260Z,27.30
2019-04-03T10:38:37.329Z,27.10
2019-04-03T10:41:05.393Z,26.20
2019-04-03T10:43:36.211Z,25.40
2019-04-03T10:46:03.990Z,24.30
2019-04-03T10:48:32.278Z,23.60
2019-04-03T10:51:01.856Z,23.00
2019-04-03T10:53:30.390Z,22.40
2019-04-03T10:55:59.860Z,21.50
2019-04-03T10:58:30.188Z,21.20
2019-04-03T11:00:59.953Z,20.80
2019-04-03T11:03:30.213Z,20.50
2019-04-03T11:06:00.135Z,20.20
2019-04-03T11:08:29.831Z,20.20
2019-04-03T11:10:58.899Z,20.40
2019-04-03T11:13:27.923Z,20.30
2019-04-03T11:15:57.166Z,20.20
2019-04-03T11:18:25.887Z,19.90
2019-04-03T11:20:54.534Z,19.80
2019-04-03T11:23:36.952Z,19.60
2019-04-03T11:25:53.748Z,19.70
2019-04-03T11:28:22.983Z,19.80
2019-04-03T11:30:53.457Z,19.70
2019-04-03T11:33:23.436Z,19.70
2019-04-03T11:35:53.847Z,19.50
2019-04-03T11:38:27.914Z,19.50
2019-04-03T11:40:55.521Z,19.50
2019-04-03T11:43:25.261Z,19.70
2019-04-03T11:45:54.855Z,19.90
2019-04-03T11:48:26.666Z,20.00
2019-04-03T11:50:56.972Z,20.10
2019-04-03T11:53:26.050Z,20.30
2019-04-03T11:55:54.302Z,20.10
2019-04-03T11:58:23.026Z,20.00
2019-04-03T12:00:52.194Z,20.00
2019-04-03T12:03:20.862Z,19.90
2019-04-03T12:05:49.375Z,19.80
2019-04-03T12:08:19.609Z,19.80
2019-04-03T12:10:49.281Z,19.80
2019-04-03T12:13:21.007Z,19.80
2019-04-03T12:15:53.549Z,19.80
2019-04-03T12:18:21.963Z,20.00
2019-04-03T12:20:50.556Z,20.00
2019-04-03T12:23:19.569Z,19.80
2019-04-03T12:25:50.772Z,19.80
2019-04-03T12:28:19.942Z,19.80
2019-04-03T12:30:49.188Z,19.90
2019-04-03T12:33:20.165Z,20.00
2019-04-03T12:35:47.817Z,20.20
2019-04-03T12:38:16.315Z,20.20
2019-04-03T12:40:44.668Z,20.20
2019-04-03T12:43:13.102Z,20.30
2019-04-03T12:45:42.478Z,20.40
2019-04-03T12:48:10.465Z,20.30
2019-04-03T12:50:39.511Z,20.30
2019-04-03T12:53:08.184Z,20.30
2019-04-03T12:55:37.026Z,20.70
2019-04-03T12:58:06.171Z,20.90
2019-04-03T13:00:34.783Z,20.90
2019-04-03T13:03:03.433Z,20.90
2019-04-03T13:05:33.015Z,20.90
2019-04-03T13:08:01.336Z,20.90
2019-04-03T13:10:40.069Z,21.00
2019-04-03T13:13:00.109Z,21.00
2019-04-03T13:15:29.367Z,21.00
2019-04-03T13:17:58.724Z,21.10
2019-04-03T13:20:27.337Z,20.90
2019-04-03T13:22:56.330Z,20.90
2019-04-03T13:25:24.848Z,20.90
2019-04-03T13:27:53.397Z,20.90
2019-04-03T13:30:21.990Z,20.80
2019-04-03T13:32:59.017Z,20.60
2019-04-03T13:35:21.078Z,20.50
2019-04-03T13:37:49.946Z,20.40
2019-04-03T13:40:18.206Z,20.40
2019-04-03T13:42:48.865Z,20.40
2019-04-03T13:45:17.342Z,20.40
2019-04-03T13:47:47.042Z,20.30
2019-04-03T13:50:15.484Z,20.40
2019-04-03T13:52:48.480Z,20.30
2019-04-03T13:55:14.823Z,20.30
2019-04-03T13:57:50.827Z,20.20
2019-04-03T14:00:23.002Z,20.30
2019-04-03T14:02:50.664Z,20.20
2019-04-03T14:05:19.098Z,20.20
2019-04-03T14:07:48.178Z,20.20
2019-04-03T14:10:16.544Z,20.30
2019-04-03T14:12:45.711Z,20.20
2019-04-03T14:15:14.476Z,20.30
2019-04-03T14:17:54.040Z,20.10
2019-04-03T14:20:13.136Z,20.00
2019-04-03T14:22:41.779Z,20.00
2019-04-03T14:25:19.366Z,20.00
2019-04-03T14:27:40.625Z,19.90
2019-04-03T14:30:11.628Z,19.80
2019-04-03T14:32:39.161Z,19.90
2019-04-03T14:35:39.144Z,19.80
2019-04-03T14:37:39.855Z,19.70
2019-04-03T14:40:10.989Z,19.60
2019-04-03T14:42:38.470Z,19.60
2019-04-03T14:45:07.212Z,19.60
2019-04-03T14:47:35.875Z,19.60
2019-04-03T14:50:05.261Z,19.60
2019-04-03T14:52:35.562Z,19.50
2019-04-03T14:55:17.185Z,19.40
2019-04-03T14:57:37.181Z,19.40
2019-04-03T15:00:23.567Z,19.30
2019-04-03T15:02:40.098Z,19.40
2019-04-03T15:05:09.971Z,19.30
2019-04-03T15:07:40.504Z,19.30
2019-04-03T15:10:10.729Z,19.30
2019-04-03T15:12:40.888Z,19.30
2019-04-03T15:15:11.883Z,19.30
2019-04-03T15:17:41.515Z,19.30
2019-04-03T15:20:12.366Z,19.30
2019-04-03T15:22:41.635Z,19.30
2019-04-03T15:25:10.896Z,19.30
2019-04-03T15:27:40.399Z,19.30
2019-04-03T15:30:12.269Z,19.40
2019-04-03T15:32:43.899Z,19.30
2019-04-03T15:35:13.616Z,19.30
2019-04-03T15:37:43.029Z,19.20
2019-04-03T15:40:14.693Z,19.10
2019-04-03T15:42:43.797Z,19.00
2019-04-03T15:45:13.445Z,18.90
2019-04-03T15:47:46.848Z,18.80
2019-04-03T15:50:16.384Z,18.80
2019-04-03T15:52:48.236Z,18.80
2019-04-03T15:55:19.792Z,18.70
2019-04-03T15:57:51.795Z,18.70
2019-04-03T16:00:21.356Z,18.70
2019-04-03T16:02:50.566Z,18.60
2019-04-03T16:05:20.197Z,18.50
2019-04-03T16:07:49.700Z,18.50
2019-04-03T16:10:20.301Z,18.40
2019-04-03T16:12:51.000Z,18.40
2019-04-03T16:15:22.726Z,18.30
2019-04-03T16:17:53.295Z,18.30
2019-04-03T16:20:23.426Z,18.30
2019-04-03T16:22:52.837Z,18.30
2019-04-03T16:25:22.447Z,18.30
2019-04-03T16:27:51.826Z,18.20
2019-04-03T16:30:21.816Z,18.10
2019-04-03T16:32:51.939Z,18.10
2019-04-03T16:35:21.738Z,18.00
2019-04-03T16:37:53.076Z,18.00
2019-04-03T16:40:22.629Z,17.90
2019-04-03T16:42:53.513Z,17.90
2019-04-03T16:45:23.114Z,17.90
2019-04-03T16:47:52.859Z,17.90
2019-04-03T16:50:22.710Z,17.90
2019-04-03T16:52:54.352Z,17.90
2019-04-03T16:55:23.801Z,17.90
2019-04-03T16:57:54.462Z,17.90
2019-04-03T17:00:25.294Z,17.90
2019-04-03T17:02:57.101Z,17.80
2019-04-03T17:05:27.688Z,17.90
2019-04-03T17:07:57.688Z,17.70
2019-04-03T17:10:27.019Z,17.70
2019-04-03T17:12:55.998Z,17.60
2019-04-03T17:15:25.898Z,17.50
2019-04-03T17:17:55.200Z,17.50
2019-04-03T17:20:24.886Z,17.40
2019-04-03T17:22:57.145Z,17.40
2019-04-03T17:25:27.734Z,17.50
2019-04-03T17:27:59.301Z,17.60
2019-04-03T17:30:30.960Z,17.60
2019-04-03T17:33:02.858Z,17.50
2019-04-03T17:35:32.270Z,17.50
2019-04-03T17:38:01.709Z,17.50
2019-04-03T17:40:30.842Z,17.40
2019-04-03T17:42:59.850Z,17.40
2019-04-03T17:45:29.313Z,17.40
2019-04-03T17:47:58.425Z,17.30
2019-04-03T17:50:29.703Z,17.30
2019-04-03T17:52:59.194Z,17.30
2019-04-03T17:55:28.867Z,17.30
2019-04-03T17:57:58.309Z,17.30
2019-04-03T18:00:28.239Z,17.20
2019-04-03T18:02:57.363Z,17.20
2019-04-03T18:05:26.513Z,17.10
2019-04-03T18:07:54.903Z,17.00
2019-04-03T18:10:26.362Z,16.90
2019-04-03T18:12:56.768Z,16.80
2019-04-03T18:15:27.511Z,16.80
2019-04-03T18:17:58.512Z,16.80
2019-04-03T18:20:28.184Z,16.70
2019-04-03T18:22:57.652Z,16.70
2019-04-03T18:25:29.367Z,16.70
2019-04-03T18:27:58.813Z,16.50
2019-04-03T18:30:29.994Z,16.50
2019-04-03T18:32:59.457Z,16.40
2019-04-03T18:35:30.305Z,16.40
2019-04-03T18:37:59.733Z,16.40
2019-04-03T18:40:29.155Z,16.40
2019-04-03T18:42:58.378Z,16.40
2019-04-03T18:45:27.442Z,16.40
2019-04-03T18:47:57.012Z,16.40
2019-04-03T18:50:26.443Z,16.40
2019-04-03T18:52:55.854Z,16.30
2019-04-03T18:55:26.033Z,16.30
2019-04-03T18:57:55.178Z,16.40
2019-04-03T19:00:24.805Z,16.30
2019-04-03T19:02:56.418Z,16.20
2019-04-03T19:05:25.758Z,16.30
2019-04-03T19:07:55.834Z,16.20
2019-04-03T19:10:25.218Z,16.20
2019-04-03T19:12:55.768Z,16.20
2019-04-03T19:15:25.209Z,16.20
2019-04-03T19:18:00.361Z,16.10
2019-04-03T19:20:27.122Z,16.10
2019-04-03T19:23:02.542Z,16.00
2019-04-03T19:25:29.671Z,16.00
2019-04-03T19:28:02.137Z,16.00
2019-04-03T19:30:32.215Z,16.00
2019-04-03T19:33:02.020Z,15.90
2019-04-03T19:35:33.055Z,15.90
2019-04-03T19:38:04.773Z,15.90
2019-04-03T19:40:34.666Z,15.90
2019-04-03T19:43:05.888Z,15.80
2019-04-03T19:45:35.314Z,15.80
2019-04-03T19:48:04.982Z,15.80
2019-04-03T19:50:34.140Z,15.80
2019-04-03T19:53:03.470Z,15.70
2019-04-03T19:55:32.494Z,15.70
2019-04-03T19:58:02.308Z,15.60
2019-04-03T20:00:33.040Z,15.60
2019-04-03T20:03:02.273Z,15.40
2019-04-03T20:05:31.706Z,15.30
2019-04-03T20:08:01.432Z,15.10
2019-04-03T20:10:33.511Z,14.80
2019-04-03T20:13:02.373Z,14.30
2019-04-03T20:15:31.789Z,13.90
2019-04-03T20:18:04.880Z,13.40
2019-04-03T20:20:34.361Z,12.70
2019-04-03T20:23:05.692Z,12.50
2019-04-03T20:25:34.896Z,12.20
2019-04-03T20:28:04.265Z,11.90
2019-04-03T20:30:33.672Z,11.50
2019-04-03T20:33:03.999Z,11.20
2019-04-03T20:35:33.946Z,10.80
2019-04-03T20:38:03.349Z,10.80
2019-04-03T20:40:33.203Z,10.70
2019-04-03T20:43:03.299Z,10.30
2019-04-03T20:45:33.295Z,10.30
2019-04-03T20:48:04.821Z,10.40
2019-04-03T20:50:34.044Z,10.30
2019-04-03T20:53:04.604Z,10.20
2019-04-03T20:55:33.932Z,10.20
2019-04-03T20:58:05.847Z,10.20
2019-04-03T21:00:33.390Z,10.00
2019-04-03T21:03:01.820Z,9.70
2019-04-03T21:05:31.000Z,9.60
2019-04-03T21:07:59.468Z,9.70
2019-04-03T21:10:27.594Z,9.60
2019-04-03T21:12:55.938Z,9.60
2019-04-03T21:15:24.412Z,9.80
2019-04-03T21:17:52.623Z,9.80
2019-04-03T21:20:21.911Z,9.90
2019-04-03T21:22:51.346Z,9.60
2019-04-03T21:25:20.044Z,9.40
2019-04-03T21:27:48.488Z,9.40
2019-04-03T21:30:16.921Z,9.30
2019-04-03T21:32:45.385Z,9.10
2019-04-03T21:35:14.747Z,9.30
2019-04-03T21:37:43.854Z,9.50
2019-04-03T21:40:15.207Z,9.70
2019-04-03T21:42:47.680Z,9.50
2019-04-03T21:45:17.137Z,9.50
2019-04-03T21:47:46.232Z,9.50
2019-04-03T21:50:19.052Z,9.40
2019-04-03T21:52:47.105Z,9.50
2019-04-03T21:55:16.625Z,9.70
2019-04-03T21:57:45.730Z,9.80
2019-04-03T22:00:21.037Z,9.50
2019-04-03T22:02:50.501Z,9.20
2019-04-03T22:05:20.866Z,9.30
2019-04-03T22:07:49.300Z,9.30
2019-04-03T22:10:17.722Z,9.70
2019-04-03T22:12:46.889Z,9.40
2019-04-03T22:15:16.190Z,9.50
2019-04-03T22:17:46.439Z,9.10
2019-04-03T22:20:15.653Z,9.10
2019-04-03T22:22:45.692Z,8.90
2019-04-03T22:25:15.472Z,8.70
2019-04-03T22:27:44.871Z,8.60
2019-04-03T22:30:14.284Z,8.60
2019-04-03T22:32:43.749Z,8.80
2019-04-03T22:35:12.504Z,9.00
2019-04-03T22:37:42.136Z,9.40
2019-04-03T22:40:10.873Z,9.20
2019-04-03T22:42:39.110Z,9.30
2019-04-03T22:45:07.417Z,9.10
2019-04-03T22:47:36.100Z,8.80
2019-04-03T22:50:05.617Z,8.80
2019-04-03T22:52:34.261Z,9.00
2019-04-03T22:55:03.117Z,8.70
2019-04-03T22:57:33.982Z,8.80
2019-04-03T23:00:02.748Z,8.80
2019-04-03T23:02:33.183Z,8.70
2019-04-03T23:05:02.083Z,8.60
2019-04-03T23:07:31.196Z,8.60
2019-04-03T23:10:01.966Z,8.50
2019-04-03T23:12:33.161Z,8.80
2019-04-03T23:15:02.653Z,8.60
2019-04-03T23:17:32.477Z,8.90
2019-04-03T23:20:03.799Z,9.00
2019-04-03T23:22:33.779Z,8.80
2019-04-03T23:25:03.698Z,8.60
2019-04-03T23:27:34.882Z,8.60
2019-04-03T23:30:10.049Z,8.40
2019-04-03T23:32:38.964Z,8.50
2019-04-03T23:35:11.361Z,8.40
2019-04-03T23:37:41.617Z,8.10
2019-04-03T23:40:11.234Z,8.10
2019-04-03T23:42:41.560Z,8.10
2019-04-03T23:45:12.905Z,8.10
2019-04-03T23:47:45.095Z,8.00
2019-04-03T23:50:15.864Z,7.90
2019-04-03T23:52:45.543Z,7.80
2019-04-03T23:55:15.320Z,7.60
2019-04-03T23:57:44.691Z,7.60
